createdAt,value
2022-11-19T00:04:08.141Z,97115.44
2022-11-19T00:09:14.417Z,97115.63
2022-11-19T00:14:16.984Z,97114.94
2022-11-19T00:19:19.970Z,97109.63
2022-11-19T00:24:22.789Z,97114.63
2022-11-19T00:29:25.436Z,97107.00
2022-11-19T00:34:27.915Z,97105.78
2022-11-19T00:39:30.349Z,97111.88
2022-11-19T00:44:37.165Z,97106.16
2022-11-19T00:49:39.882Z,97099.50
2022-11-19T00:54:42.489Z,97096.34
2022-11-19T00:59:45.174Z,97101.75
2022-11-19T01:04:50.062Z,97092.44
2022-11-19T01:09:52.404Z,97101.00
2022-11-19T01:14:54.742Z,97102.78
2022-11-19T01:19:57.507Z,97092.56
2022-11-19T01:25:00.203Z,97096.22
2022-11-19T01:30:02.711Z,97097.63
2022-11-19T01:35:08.075Z,97093.16
2022-11-19T01:40:11.991Z,97101.63
2022-11-19T01:45:37.350Z,97109.28
2022-11-19T01:50:48.708Z,97111.06
2022-11-19T01:55:51.733Z,97110.84
2022-11-19T02:00:54.110Z,97112.44
2022-11-19T02:05:56.801Z,97117.16
2022-11-19T02:11:17.647Z,97116.41
2022-11-19T02:16:20.200Z,97120.69
2022-11-19T02:21:37.889Z,97129.84
2022-11-19T02:27:02.089Z,97120.69
2022-11-19T02:32:16.037Z,97115.47
2022-11-19T02:37:26.780Z,97123.22
2022-11-19T02:42:38.592Z,97129.16
2022-11-19T02:48:25.227Z,97129.22
2022-11-19T02:53:27.757Z,97124.59
2022-11-19T02:58:51.527Z,97124.25
2022-11-19T03:04:13.378Z,97127.28
2022-11-19T03:09:16.858Z,97131.44
2022-11-19T03:14:57.923Z,97135.72
2022-11-19T03:20:34.194Z,97139.75
2022-11-19T03:25:45.493Z,97140.75
2022-11-19T03:30:49.604Z,97143.09
2022-11-19T03:35:58.752Z,97134.72
2022-11-19T03:41:03.812Z,97138.13
2022-11-19T03:46:10.998Z,97145.47
2022-11-19T03:51:15.982Z,97145.28
2022-11-19T03:56:24.495Z,97151.22
2022-11-19T04:01:26.962Z,97157.66
2022-11-19T04:06:29.537Z,97157.66
2022-11-19T04:11:31.955Z,97164.09
2022-11-19T04:16:36.492Z,97162.31
2022-11-19T04:21:38.964Z,97164.75
2022-11-19T04:26:42.659Z,97157.53
2022-11-19T04:31:45.358Z,97159.38
2022-11-19T04:36:47.918Z,97155.00
2022-11-19T04:41:50.289Z,97155.19
2022-11-19T04:46:52.728Z,97159.56
2022-11-19T04:51:55.130Z,97169.72
2022-11-19T04:56:57.494Z,97169.81
2022-11-19T05:02:00.013Z,97171.34
2022-11-19T05:07:02.654Z,97168.03
2022-11-19T05:12:05.543Z,97167.00
2022-11-19T05:17:08.038Z,97166.34
2022-11-19T05:22:10.511Z,97158.88
2022-11-19T05:27:13.130Z,97167.09
2022-11-19T05:32:15.800Z,97163.28
2022-11-19T05:37:18.135Z,97161.78
2022-11-19T05:42:20.502Z,97168.38
2022-11-19T05:47:22.942Z,97167.19
2022-11-19T05:52:25.494Z,97167.19
2022-11-19T05:57:27.965Z,97163.53
2022-11-19T06:02:30.339Z,97168.19
2022-11-19T06:07:32.951Z,97177.31
2022-11-19T06:12:35.510Z,97177.41
2022-11-19T06:17:38.009Z,97185.94
2022-11-19T06:22:41.510Z,97185.69
2022-11-19T06:27:44.248Z,97187.47
2022-11-19T06:32:46.731Z,97197.44
2022-11-19T06:37:49.335Z,97189.50
2022-11-19T06:42:54.522Z,97207.09
2022-11-19T06:47:56.928Z,97209.88
2022-11-19T06:52:59.329Z,97221.03
2022-11-19T06:58:06.396Z,97223.00
2022-11-19T07:03:08.826Z,97223.22
2022-11-19T07:08:11.268Z,97225.66
2022-11-19T07:13:14.031Z,97232.75
2022-11-19T07:18:16.522Z,97236.09
2022-11-19T07:23:23.305Z,97239.16
2022-11-19T07:28:25.670Z,97242.22
2022-11-19T07:33:28.411Z,97245.50
2022-11-19T07:38:36.633Z,97251.28
2022-11-19T07:43:39.443Z,97258.13
2022-11-19T07:48:44.810Z,97264.97
2022-11-19T07:53:47.310Z,97265.56
2022-11-19T07:58:49.752Z,97261.53
2022-11-19T08:03:56.602Z,97263.84
2022-11-19T08:09:00.268Z,97247.16
2022-11-19T08:14:02.732Z,97268.97
2022-11-19T08:19:13.402Z,97267.28
2022-11-19T08:24:20.799Z,97263.25
2022-11-19T08:29:23.886Z,97262.38
2022-11-19T08:34:26.350Z,97273.75
2022-11-19T08:39:29.831Z,97284.72
2022-11-19T08:44:32.218Z,97280.16
2022-11-19T08:49:34.570Z,97287.78
2022-11-19T08:54:37.155Z,97292.34
2022-11-19T08:59:39.472Z,97293.97
2022-11-19T09:04:45.045Z,97300.63
2022-11-19T09:09:47.492Z,97308.72
2022-11-19T09:14:50.684Z,97308.16
2022-11-19T09:19:53.046Z,97312.19
2022-11-19T09:24:55.483Z,97314.22
2022-11-19T09:29:57.910Z,97323.72
2022-11-19T09:35:00.747Z,97328.09
2022-11-19T09:40:04.813Z,97322.63
2022-11-19T09:45:16.353Z,97319.38
2022-11-19T09:50:35.559Z,97324.16
2022-11-19T09:55:46.868Z,97326.63
2022-11-19T10:00:49.347Z,97332.72
2022-11-19T10:05:54.748Z,97335.34
2022-11-19T10:11:18.829Z,97328.63
2022-11-19T10:16:32.374Z,97329.66
2022-11-19T10:21:56.991Z,97324.19
2022-11-19T10:27:08.497Z,97315.19
2022-11-19T10:32:35.828Z,97321.50
2022-11-19T10:37:48.780Z,97305.00
2022-11-19T10:43:08.207Z,97317.28
2022-11-19T10:48:23.812Z,97318.81
2022-11-19T10:53:36.261Z,97315.41
2022-11-19T10:58:56.561Z,97304.78
2022-11-19T11:04:02.112Z,97303.47
2022-11-19T11:09:04.475Z,97295.97
2022-11-19T11:14:30.652Z,97304.66
2022-11-19T11:19:33.514Z,97294.22
2022-11-19T11:24:38.485Z,97292.16
2022-11-19T11:29:41.285Z,97292.72
2022-11-19T11:34:44.260Z,97300.44
2022-11-19T11:39:53.023Z,97291.88
2022-11-19T11:45:01.133Z,97288.59
2022-11-19T11:50:12.060Z,97295.31
2022-11-19T11:55:14.743Z,97287.28
2022-11-19T12:00:36.175Z,97300.34
2022-11-19T12:05:47.484Z,97295.53
2022-11-19T12:11:02.667Z,97292.94
2022-11-19T12:16:24.671Z,97296.53
2022-11-19T12:21:37.277Z,97297.06
2022-11-19T12:26:45.474Z,97301.50
2022-11-19T12:31:53.957Z,97293.38
2022-11-19T12:37:37.643Z,97295.78
2022-11-19T12:42:52.786Z,97301.09
2022-11-19T12:48:07.401Z,97295.53
2022-11-19T12:53:33.381Z,97294.66
2022-11-19T12:58:52.906Z,97302.19
2022-11-19T13:04:16.886Z,97302.47
2022-11-19T13:09:48.763Z,97301.84
2022-11-19T13:14:58.173Z,97305.94
2022-11-19T13:20:18.435Z,97302.88
2022-11-19T13:25:31.863Z,97299.19
2022-11-19T13:30:35.456Z,97308.19
2022-11-19T13:36:09.935Z,97315.47
2022-11-19T13:41:30.599Z,97308.53
2022-11-19T13:46:56.707Z,97309.06
2022-11-19T13:52:09.752Z,97312.44
2022-11-19T13:57:27.800Z,97306.34
2022-11-19T14:02:46.671Z,97302.69
2022-11-19T14:08:10.667Z,97305.94
2022-11-19T14:13:15.882Z,97302.69
2022-11-19T14:18:54.185Z,97310.97
2022-11-19T14:24:15.796Z,97306.19
2022-11-19T14:29:21.216Z,97299.69
2022-11-19T14:34:50.163Z,97307.09
2022-11-19T14:40:07.347Z,97314.22
2022-11-19T14:45:09.740Z,97313.78
2022-11-19T14:50:40.885Z,97324.59
2022-11-19T14:55:53.928Z,97335.88
2022-11-19T15:01:19.523Z,97329.06
2022-11-19T15:06:23.935Z,97325.41
2022-11-19T15:12:00.227Z,97328.84
2022-11-19T15:17:04.975Z,97328.72
2022-11-19T15:22:22.222Z,97330.34
2022-11-19T15:28:01.517Z,97326.31
2022-11-19T15:33:31.295Z,97319.28
2022-11-19T15:38:45.354Z,97323.06
2022-11-19T15:43:57.347Z,97322.63
2022-11-19T15:49:18.539Z,97327.84
2022-11-19T15:54:31.175Z,97335.06
2022-11-19T15:59:38.978Z,97335.19
2022-11-19T16:04:41.622Z,97335.88
2022-11-19T16:09:44.347Z,97336.19
2022-11-19T16:15:30.285Z,97339.59
2022-11-19T16:20:34.219Z,97334.41
2022-11-19T16:25:39.177Z,97338.03
2022-11-19T16:30:59.957Z,97338.34
2022-11-19T16:36:19.733Z,97355.59
2022-11-19T16:41:43.750Z,97355.69
2022-11-19T16:46:46.884Z,97363.16
2022-11-19T16:51:53.852Z,97371.53
2022-11-19T16:56:56.286Z,97368.69
2022-11-19T17:02:05.501Z,97378.28
2022-11-19T17:07:14.808Z,97381.19
2022-11-19T17:12:23.093Z,97375.44
2022-11-19T17:17:30.944Z,97379.19
2022-11-19T17:22:38.848Z,97381.19
2022-11-19T17:27:41.426Z,97384.97
2022-11-19T17:32:52.480Z,97390.84
2022-11-19T17:37:54.859Z,97390.22
2022-11-19T17:43:16.082Z,97387.31
2022-11-19T17:48:22.900Z,97404.75
2022-11-19T17:53:25.460Z,97402.69
2022-11-19T17:58:27.873Z,97413.13
2022-11-19T18:03:30.382Z,97418.25
2022-11-19T18:08:35.111Z,97414.28
2022-11-19T18:13:37.730Z,97419.78
2022-11-19T18:18:40.220Z,97419.97
2022-11-19T18:23:44.640Z,97418.09
2022-11-19T18:28:49.009Z,97419.66
2022-11-19T18:33:52.064Z,97422.63
2022-11-19T18:38:55.673Z,97417.13
2022-11-19T18:44:17.073Z,97421.34
2022-11-19T18:49:23.084Z,97422.72
2022-11-19T18:54:25.909Z,97425.84
2022-11-19T18:59:29.889Z,97421.88
2022-11-19T19:04:32.419Z,97428.72
2022-11-19T19:09:34.923Z,97429.63
2022-11-19T19:14:37.425Z,97426.88
2022-11-19T19:19:40.348Z,97434.16
2022-11-19T19:24:42.710Z,97434.28
2022-11-19T19:29:45.399Z,97440.63
2022-11-19T19:34:47.900Z,97446.38
2022-11-19T19:39:50.289Z,97438.44
2022-11-19T19:44:52.660Z,97453.09
2022-11-19T19:49:55.166Z,97455.97
2022-11-19T19:54:57.770Z,97456.44
2022-11-19T20:00:00.211Z,97466.59
2022-11-19T20:05:02.648Z,97465.66
2022-11-19T20:10:08.243Z,97467.59
2022-11-19T20:15:11.008Z,97471.66
2022-11-19T20:20:14.010Z,97477.78
2022-11-19T20:25:16.744Z,97483.00
2022-11-19T20:30:19.197Z,97481.41
2022-11-19T20:35:21.815Z,97485.75
2022-11-19T20:40:28.048Z,97492.84
2022-11-19T20:45:30.610Z,97480.97
2022-11-19T20:50:32.992Z,97487.69
2022-11-19T20:55:48.430Z,97491.66
2022-11-19T21:01:06.457Z,97492.50
2022-11-19T21:06:09.082Z,97500.72
2022-11-19T21:11:15.794Z,97501.75
2022-11-19T21:16:23.663Z,97504.38
2022-11-19T21:21:29.096Z,97502.16
2022-11-19T21:26:31.655Z,97503.28
2022-11-19T21:31:43.580Z,97502.00
2022-11-19T21:36:47.657Z,97488.28
2022-11-19T21:41:50.035Z,97491.47
2022-11-19T21:46:52.439Z,97488.41
2022-11-19T21:51:55.304Z,97494.53
2022-11-19T21:57:00.731Z,97493.88
2022-11-19T22:02:03.390Z,97499.78
2022-11-19T22:07:06.289Z,97500.47
2022-11-19T22:12:08.859Z,97509.03
2022-11-19T22:17:11.263Z,97503.59
2022-11-19T22:22:18.860Z,97509.88
2022-11-19T22:27:21.286Z,97507.38
2022-11-19T22:32:23.750Z,97490.72
2022-11-19T22:37:26.262Z,97505.53
2022-11-19T22:42:28.988Z,97500.28
2022-11-19T22:47:31.470Z,97490.28
2022-11-19T22:52:35.189Z,97493.47
2022-11-19T22:57:37.612Z,97497.47
2022-11-19T23:02:40.225Z,97488.72
2022-11-19T23:07:42.975Z,97494.28
2022-11-19T23:13:07.062Z,97481.44
2022-11-19T23:18:09.439Z,97479.22
2022-11-19T23:23:11.919Z,97483.47
2022-11-19T23:28:14.784Z,97487.63
2022-11-19T23:33:17.627Z,97494.50
2022-11-19T23:38:20.108Z,97494.81
2022-11-19T23:43:22.703Z,97496.25
2022-11-19T23:48:25.081Z,97499.91
2022-11-19T23:53:27.617Z,97493.97
2022-11-19T23:58:30.134Z,97487.00
